Danville, VA

2:59 PM EDT on September 17, 2014 (GMT -0400)
Druid Hills | Change Station
CLOSE
Current Station
Personal Weather Station
Location: Danville, VA
Elevation: 499 ft
Nearby Weather Stations

Elev 499 ft 36.56 °N, 79.42 °W | Updated 13 minutes ago

Overcast
Overcast
73.6 °F
Feels Like 75 °F
N
0.0
Wind Variable Wind from ESE

Today
High -- | Low -- °F
--% Chance of Precip.
Yesterday
High -- | Low -- °F
Precip. -- in
7:01 AM 7:22 PM
Waning Crescent, 34% visible
Pressure 29.98 in
Visibility 10.0 miles
Clouds Overcast 2800 ft
Heat Index 75 °F
Dew Point 64 °F
Humidity 72%
Rainfall 0.00 in
Snow Depth Not available.
UV 3 out of 12
Pollen 6.20 out of 12
Air Quality Not available.
Flu Activity Not available.
METAR KDAN 171653Z AUTO 07007KT 10SM OVC028 23/16 A3001 RMK AO2 SLP151 T02280156

More Conditions Fewer Conditions

Pressure 29.98 in
Visibility 10.0 miles
Clouds Overcast 2800 ft
Heat Index 75 °F
Dew Point 64 °F
Humidity 72%
Rainfall 0.00 in
Snow Depth Not available.
UV 3 out of 12
Pollen 6.20 out of 12
Air Quality Not available.
Flu Activity Not available.
METAR KDAN 171653Z AUTO 07007KT 10SM OVC028 23/16 A3001 RMK AO2 SLP151 T02280156

More Conditions Fewer Conditions

10-Day Weather Forecast

Almanac

Astronomy

Sep. 17, 2014 Rise Set
Actual Time 7:01 AM EDT 7:22 PM EDT
Civil Twilight 6:35 AM EDT 7:47 PM EDT
Nautical Twilight 6:05 AM EDT 8:18 PM EDT
Astronomical Twilight 5:34 AM EDT 8:48 PM EDT
Moon 1:06 AM EDT 3:24 PM EDT
Length of Visible Light 13h 12m
Length of Day
12h 20m
Tomorrow will be 2m 19s shorter.
Waning Crescent, 34% of the Moon is Illuminated
Today
Waning Crescent
Sep 24
New
Oct 1
First Quarter
Oct 8
Full
Oct 15
Last Quarter

Today's Extremes

State Highs State Lows

Community

WunderPhotos

Upload Photos

1,754,127 photos uploaded!

WunderBlogs® & News

Nearby

Snow Depth

Station Depth Elevation
No new snow has been reported.

Earthquake Activity

City Distance Mag. Time & Date
No recent earthquake activity has been reported nearby.
Minimum magnitude displayed is 2.5.

Coastal Water Temperatures

Place Temperature
No Stations Reporting

Nearby Weather Stations